sensor_id;sensor_type;location;lat;lon;timestamp;pressure;altitude;pressure_sealevel;temperature;humidity
49915;BME280;35806;47.958;13.158;2023-08-20T00:01:22;95157.47;;;22.33;51.12
49915;BME280;35806;47.958;13.158;2023-08-20T00:03:51;95154.69;;;22.54;51.87
49915;BME280;35806;47.958;13.158;2023-08-20T00:06:19;95158.73;;;22.42;53.13
49915;BME280;35806;47.958;13.158;2023-08-20T00:08:47;95160.68;;;22.46;53.26
49915;BME280;35806;47.958;13.158;2023-08-20T00:11:15;95163.03;;;22.42;53.39
49915;BME280;35806;47.958;13.158;2023-08-20T00:13:43;95166.48;;;22.45;53.53
49915;BME280;35806;47.958;13.158;2023-08-20T00:16:11;95170.56;;;22.37;53.55
49915;BME280;35806;47.958;13.158;2023-08-20T00:18:39;95167.50;;;22.50;52.90
49915;BME280;35806;47.958;13.158;2023-08-20T00:21:08;95168.60;;;22.31;54.18
49915;BME280;35806;47.958;13.158;2023-08-20T00:23:36;95165.86;;;22.24;54.00
49915;BME280;35806;47.958;13.158;2023-08-20T00:26:04;95160.99;;;22.68;53.91
49915;BME280;35806;47.958;13.158;2023-08-20T00:28:32;95159.34;;;22.44;51.70
49915;BME280;35806;47.958;13.158;2023-08-20T00:30:59;95159.61;;;22.27;53.52
49915;BME280;35806;47.958;13.158;2023-08-20T00:33:26;95156.39;;;22.27;51.03
49915;BME280;35806;47.958;13.158;2023-08-20T00:35:53;95156.59;;;22.69;53.92
49915;BME280;35806;47.958;13.158;2023-08-20T00:38:21;95156.32;;;22.22;54.34
49915;BME280;35806;47.958;13.158;2023-08-20T00:40:49;95155.59;;;22.22;55.40
49915;BME280;35806;47.958;13.158;2023-08-20T00:43:16;95153.15;;;22.02;54.66
49915;BME280;35806;47.958;13.158;2023-08-20T00:45:44;95156.21;;;22.33;53.70
49915;BME280;35806;47.958;13.158;2023-08-20T00:48:11;95156.93;;;22.08;54.84
49915;BME280;35806;47.958;13.158;2023-08-20T00:50:39;95155.19;;;21.95;54.01
49915;BME280;35806;47.958;13.158;2023-08-20T00:53:09;95154.60;;;21.78;53.92
49915;BME280;35806;47.958;13.158;2023-08-20T00:55:37;95151.91;;;21.94;55.21
49915;BME280;35806;47.958;13.158;2023-08-20T00:58:05;95147.84;;;21.39;55.62
49915;BME280;35806;47.958;13.158;2023-08-20T01:15:29;95132.92;;;21.13;51.77
49915;BME280;35806;47.958;13.158;2023-08-20T01:17:56;95134.24;;;22.26;52.72
49915;BME280;35806;47.958;13.158;2023-08-20T01:20:27;95130.85;;;22.04;52.70
49915;BME280;35806;47.958;13.158;2023-08-20T01:24:15;95128.32;;;22.06;52.49
49915;BME280;35806;47.958;13.158;2023-08-20T01:26:58;95124.58;;;21.14;52.27
49915;BME280;35806;47.958;13.158;2023-08-20T01:29:27;95124.74;;;21.45;51.80
49915;BME280;35806;47.958;13.158;2023-08-20T01:31:55;95123.86;;;21.64;52.27
49915;BME280;35806;47.958;13.158;2023-08-20T01:34:23;95127.88;;;21.19;54.24
49915;BME280;35806;47.958;13.158;2023-08-20T01:36:51;95130.83;;;21.11;52.26
49915;BME280;35806;47.958;13.158;2023-08-20T01:39:18;95135.52;;;21.45;52.21
49915;BME280;35806;47.958;13.158;2023-08-20T01:41:45;95139.08;;;21.09;54.90
49915;BME280;35806;47.958;13.158;2023-08-20T01:44:13;95140.89;;;21.25;54.33
49915;BME280;35806;47.958;13.158;2023-08-20T01:46:40;95140.10;;;21.26;54.14
49915;BME280;35806;47.958;13.158;2023-08-20T01:49:07;95142.37;;;21.08;55.60
49915;BME280;35806;47.958;13.158;2023-08-20T01:51:35;95146.98;;;20.59;56.23
49915;BME280;35806;47.958;13.158;2023-08-20T01:54:02;95146.58;;;21.14;53.99
49915;BME280;35806;47.958;13.158;2023-08-20T01:56:29;95147.63;;;21.14;52.83
49915;BME280;35806;47.958;13.158;2023-08-20T01:58:57;95148.42;;;21.74;54.28
49915;BME280;35806;47.958;13.158;2023-08-20T02:01:24;95151.34;;;21.57;54.62
49915;BME280;35806;47.958;13.158;2023-08-20T02:03:52;95150.38;;;21.25;55.65
49915;BME280;35806;47.958;13.158;2023-08-20T02:06:19;95150.94;;;21.39;55.92
49915;BME280;35806;47.958;13.158;2023-08-20T02:08:47;95152.46;;;21.44;55.73
49915;BME280;35806;47.958;13.158;2023-08-20T02:11:14;95151.88;;;21.61;55.56
49915;BME280;35806;47.958;13.158;2023-08-20T02:13:42;95153.63;;;21.45;56.24
49915;BME280;35806;47.958;13.158;2023-08-20T02:16:09;95148.88;;;21.34;56.22
49915;BME280;35806;47.958;13.158;2023-08-20T02:18:36;95150.09;;;21.21;56.34
49915;BME280;35806;47.958;13.158;2023-08-20T02:21:03;95150.50;;;20.91;52.71
49915;BME280;35806;47.958;13.158;2023-08-20T02:23:31;95149.46;;;20.90;52.56
49915;BME280;35806;47.958;13.158;2023-08-20T02:25:58;95143.94;;;20.53;53.48
49915;BME280;35806;47.958;13.158;2023-08-20T02:28:26;95144.45;;;20.38;54.32
49915;BME280;35806;47.958;13.158;2023-08-20T02:30:53;95143.66;;;19.70;55.68
49915;BME280;35806;47.958;13.158;2023-08-20T02:33:20;95146.11;;;20.56;57.52
49915;BME280;35806;47.958;13.158;2023-08-20T02:35:47;95143.70;;;20.53;58.15
49915;BME280;35806;47.958;13.158;2023-08-20T02:38:15;95148.86;;;20.78;57.39
49915;BME280;35806;47.958;13.158;2023-08-20T02:40:42;95147.73;;;20.50;58.08
49915;BME280;35806;47.958;13.158;2023-08-20T02:43:10;95149.85;;;21.33;56.36
49915;BME280;35806;47.958;13.158;2023-08-20T02:45:41;95147.04;;;20.55;56.23
49915;BME280;35806;47.958;13.158;2023-08-20T02:48:08;95150.36;;;21.08;55.08
49915;BME280;35806;47.958;13.158;2023-08-20T02:50:36;95153.93;;;20.00;54.83
49915;BME280;35806;47.958;13.158;2023-08-20T02:53:03;95148.34;;;20.80;55.52
49915;BME280;35806;47.958;13.158;2023-08-20T02:55:31;95150.57;;;21.16;56.40
49915;BME280;35806;47.958;13.158;2023-08-20T02:57:58;95154.58;;;20.95;55.55
49915;BME280;35806;47.958;13.158;2023-08-20T03:00:25;95155.44;;;21.25;54.94
49915;BME280;35806;47.958;13.158;2023-08-20T03:02:53;95157.37;;;21.12;52.56
49915;BME280;35806;47.958;13.158;2023-08-20T03:05:20;95157.79;;;21.00;55.85
49915;BME280;35806;47.958;13.158;2023-08-20T03:07:47;95155.59;;;20.99;54.82
49915;BME280;35806;47.958;13.158;2023-08-20T03:10:14;95156.56;;;20.62;53.17
49915;BME280;35806;47.958;13.158;2023-08-20T03:12:42;95154.98;;;20.48;56.15
49915;BME280;35806;47.958;13.158;2023-08-20T03:15:10;95156.34;;;20.96;56.00
49915;BME280;35806;47.958;13.158;2023-08-20T03:17:37;95153.24;;;20.52;57.18
49915;BME280;35806;47.958;13.158;2023-08-20T03:20:05;95154.86;;;21.01;57.07
49915;BME280;35806;47.958;13.158;2023-08-20T03:22:32;95156.95;;;20.50;57.11
49915;BME280;35806;47.958;13.158;2023-08-20T03:25:00;95156.14;;;20.88;57.45
49915;BME280;35806;47.958;13.158;2023-08-20T03:27:27;95158.45;;;20.63;53.81
49915;BME280;35806;47.958;13.158;2023-08-20T03:29:55;95158.13;;;19.78;54.74
49915;BME280;35806;47.958;13.158;2023-08-20T03:32:23;95157.37;;;20.29;55.80
49915;BME280;35806;47.958;13.158;2023-08-20T03:34:50;95158.11;;;20.00;56.51
49915;BME280;35806;47.958;13.158;2023-08-20T03:37:18;95160.46;;;20.39;56.29
49915;BME280;35806;47.958;13.158;2023-08-20T03:39:45;95162.01;;;20.42;57.22
49915;BME280;35806;47.958;13.158;2023-08-20T03:42:13;95163.20;;;20.59;56.30
49915;BME280;35806;47.958;13.158;2023-08-20T03:44:40;95166.03;;;20.38;54.77
49915;BME280;35806;47.958;13.158;2023-08-20T03:47:07;95167.01;;;20.49;55.41
49915;BME280;35806;47.958;13.158;2023-08-20T03:49:35;95166.81;;;20.51;54.53
49915;BME280;35806;47.958;13.158;2023-08-20T03:52:03;95165.37;;;20.18;55.84
49915;BME280;35806;47.958;13.158;2023-08-20T03:54:32;95161.49;;;20.15;54.30
49915;BME280;35806;47.958;13.158;2023-08-20T03:56:59;95161.28;;;20.50;54.47
49915;BME280;35806;47.958;13.158;2023-08-20T03:59:26;95160.97;;;20.51;53.97
49915;BME280;35806;47.958;13.158;2023-08-20T04:01:53;95161.90;;;20.37;53.22
49915;BME280;35806;47.958;13.158;2023-08-20T04:04:21;95164.71;;;20.44;54.07
49915;BME280;35806;47.958;13.158;2023-08-20T04:06:48;95166.83;;;20.50;55.85
49915;BME280;35806;47.958;13.158;2023-08-20T04:09:15;95170.31;;;20.20;53.37
49915;BME280;35806;47.958;13.158;2023-08-20T04:11:43;95168.14;;;20.32;54.60
49915;BME280;35806;47.958;13.158;2023-08-20T04:14:10;95171.48;;;20.35;56.00
49915;BME280;35806;47.958;13.158;2023-08-20T04:16:37;95178.79;;;19.64;54.86
49915;BME280;35806;47.958;13.158;2023-08-20T04:19:04;95178.77;;;20.02;55.70
49915;BME280;35806;47.958;13.158;2023-08-20T04:21:32;95180.79;;;19.86;54.93
49915;BME280;35806;47.958;13.158;2023-08-20T04:24:00;95184.98;;;20.01;54.45
49915;BME280;35806;47.958;13.158;2023-08-20T04:26:27;95184.74;;;20.01;55.10
49915;BME280;35806;47.958;13.158;2023-08-20T04:28:55;95183.89;;;19.61;55.28
49915;BME280;35806;47.958;13.158;2023-08-20T04:31:22;95183.61;;;19.84;55.20
49915;BME280;35806;47.958;13.158;2023-08-20T04:33:49;95184.43;;;19.72;55.20
49915;BME280;35806;47.958;13.158;2023-08-20T04:36:16;95181.74;;;20.30;55.75
49915;BME280;35806;47.958;13.158;2023-08-20T04:39:04;95182.72;;;20.79;56.14
49915;BME280;35806;47.958;13.158;2023-08-20T04:41:32;95183.42;;;20.40;54.29
49915;BME280;35806;47.958;13.158;2023-08-20T04:44:00;95185.97;;;20.27;55.35
49915;BME280;35806;47.958;13.158;2023-08-20T04:46:27;95187.82;;;21.04;54.78
49915;BME280;35806;47.958;13.158;2023-08-20T04:48:55;95188.67;;;20.65;56.41
49915;BME280;35806;47.958;13.158;2023-08-20T04:51:22;95190.99;;;20.45;53.82
49915;BME280;35806;47.958;13.158;2023-08-20T04:53:50;95189.99;;;21.01;53.67
49915;BME280;35806;47.958;13.158;2023-08-20T04:56:17;95193.57;;;20.82;55.63
49915;BME280;35806;47.958;13.158;2023-08-20T04:58:44;95193.98;;;21.10;53.85
49915;BME280;35806;47.958;13.158;2023-08-20T05:01:12;95198.67;;;20.76;53.51
49915;BME280;35806;47.958;13.158;2023-08-20T05:03:39;95195.00;;;20.67;52.74
49915;BME280;35806;47.958;13.158;2023-08-20T05:06:06;95195.47;;;21.15;52.79
49915;BME280;35806;47.958;13.158;2023-08-20T05:08:34;95195.20;;;20.45;53.15
49915;BME280;35806;47.958;13.158;2023-08-20T05:11:01;95194.50;;;20.33;53.74
49915;BME280;35806;47.958;13.158;2023-08-20T05:13:29;95195.47;;;21.49;52.44
49915;BME280;35806;47.958;13.158;2023-08-20T05:15:56;95197.69;;;21.17;53.00
49915;BME280;35806;47.958;13.158;2023-08-20T05:18:24;95204.25;;;21.04;53.01
49915;BME280;35806;47.958;13.158;2023-08-20T05:20:51;95206.12;;;21.07;52.57
49915;BME280;35806;47.958;13.158;2023-08-20T05:23:19;95209.05;;;21.73;52.96
49915;BME280;35806;47.958;13.158;2023-08-20T05:25:46;95214.57;;;20.43;53.61
49915;BME280;35806;47.958;13.158;2023-08-20T05:28:13;95215.65;;;21.00;53.07
49915;BME280;35806;47.958;13.158;2023-08-20T05:30:40;95218.31;;;21.36;52.34
49915;BME280;35806;47.958;13.158;2023-08-20T05:33:08;95218.66;;;21.54;51.37
49915;BME280;35806;47.958;13.158;2023-08-20T05:35:35;95215.88;;;21.84;51.46
49915;BME280;35806;47.958;13.158;2023-08-20T05:38:02;95215.91;;;22.45;51.08
49915;BME280;35806;47.958;13.158;2023-08-20T05:40:30;95218.77;;;22.73;49.86
49915;BME280;35806;47.958;13.158;2023-08-20T05:42:57;95214.76;;;22.11;49.51
49915;BME280;35806;47.958;13.158;2023-08-20T05:45:25;95217.70;;;22.26;49.52
49915;BME280;35806;47.958;13.158;2023-08-20T05:47:53;95218.35;;;22.73;51.07
49915;BME280;35806;47.958;13.158;2023-08-20T05:50:20;95219.40;;;22.68;48.82
49915;BME280;35806;47.958;13.158;2023-08-20T05:52:48;95221.04;;;23.16;49.14
49915;BME280;35806;47.958;13.158;2023-08-20T05:55:15;95221.77;;;23.28;50.39
49915;BME280;35806;47.958;13.158;2023-08-20T05:57:42;95222.30;;;23.61;49.75
49915;BME280;35806;47.958;13.158;2023-08-20T06:00:11;95222.94;;;23.83;50.27
49915;BME280;35806;47.958;13.158;2023-08-20T06:02:38;95223.23;;;23.32;49.97
49915;BME280;35806;47.958;13.158;2023-08-20T06:05:06;95227.41;;;23.97;48.61
49915;BME280;35806;47.958;13.158;2023-08-20T06:07:33;95229.46;;;23.39;47.65
49915;BME280;35806;47.958;13.158;2023-08-20T06:10:00;95236.23;;;24.02;47.87
49915;BME280;35806;47.958;13.158;2023-08-20T06:12:27;95236.84;;;23.88;48.14
49915;BME280;35806;47.958;13.158;2023-08-20T06:14:55;95236.45;;;23.88;49.71
49915;BME280;35806;47.958;13.158;2023-08-20T06:17:22;95234.26;;;23.92;48.82
49915;BME280;35806;47.958;13.158;2023-08-20T06:20:00;95235.37;;;24.30;48.61
49915;BME280;35806;47.958;13.158;2023-08-20T06:22:27;95232.09;;;24.46;47.76
49915;BME280;35806;47.958;13.158;2023-08-20T06:24:55;95237.39;;;24.67;48.67
49915;BME280;35806;47.958;13.158;2023-08-20T06:27:22;95235.91;;;24.69;48.27
49915;BME280;35806;47.958;13.158;2023-08-20T06:29:50;95238.70;;;24.27;48.05
49915;BME280;35806;47.958;13.158;2023-08-20T06:32:17;95242.56;;;24.45;47.28
49915;BME280;35806;47.958;13.158;2023-08-20T06:34:44;95242.32;;;24.52;46.51
49915;BME280;35806;47.958;13.158;2023-08-20T06:37:11;95245.87;;;25.12;46.33
49915;BME280;35806;47.958;13.158;2023-08-20T06:39:38;95242.38;;;24.80;46.67
49915;BME280;35806;47.958;13.158;2023-08-20T06:42:05;95245.51;;;25.31;46.33
49915;BME280;35806;47.958;13.158;2023-08-20T06:44:33;95244.57;;;25.17;46.31
49915;BME280;35806;47.958;13.158;2023-08-20T06:47:05;95241.89;;;25.86;45.22
49915;BME280;35806;47.958;13.158;2023-08-20T06:49:33;95238.61;;;26.16;44.96
49915;BME280;35806;47.958;13.158;2023-08-20T06:52:00;95237.71;;;25.88;43.49
49915;BME280;35806;47.958;13.158;2023-08-20T06:54:28;95238.58;;;25.86;45.42
49915;BME280;35806;47.958;13.158;2023-08-20T06:57:00;95240.42;;;26.32;45.12
49915;BME280;35806;47.958;13.158;2023-08-20T06:59:27;95239.46;;;26.51;44.63
49915;BME280;35806;47.958;13.158;2023-08-20T07:01:54;95237.65;;;26.56;43.99
49915;BME280;35806;47.958;13.158;2023-08-20T07:04:21;95238.30;;;26.53;44.51
49915;BME280;35806;47.958;13.158;2023-08-20T07:06:49;95239.85;;;26.07;43.16
49915;BME280;35806;47.958;13.158;2023-08-20T07:09:16;95240.98;;;26.43;42.79
49915;BME280;35806;47.958;13.158;2023-08-20T07:11:43;95244.46;;;26.66;44.83
49915;BME280;35806;47.958;13.158;2023-08-20T07:14:11;95245.91;;;26.76;43.54
49915;BME280;35806;47.958;13.158;2023-08-20T07:16:38;95246.65;;;26.79;43.43
49915;BME280;35806;47.958;13.158;2023-08-20T07:19:05;95249.25;;;26.92;42.53
49915;BME280;35806;47.958;13.158;2023-08-20T07:21:34;95251.82;;;27.25;42.88
49915;BME280;35806;47.958;13.158;2023-08-20T07:24:01;95253.75;;;27.72;43.28
49915;BME280;35806;47.958;13.158;2023-08-20T07:26:30;95258.27;;;27.92;42.37
49915;BME280;35806;47.958;13.158;2023-08-20T07:28:57;95260.97;;;28.34;43.40
49915;BME280;35806;47.958;13.158;2023-08-20T07:31:25;95261.93;;;28.48;41.62
49915;BME280;35806;47.958;13.158;2023-08-20T07:33:53;95264.42;;;28.25;43.01
49915;BME280;35806;47.958;13.158;2023-08-20T07:36:22;95264.28;;;28.07;42.89
49915;BME280;35806;47.958;13.158;2023-08-20T07:38:50;95269.72;;;28.78;41.73
49915;BME280;35806;47.958;13.158;2023-08-20T07:41:18;95268.40;;;28.33;42.17
49915;BME280;35806;47.958;13.158;2023-08-20T07:43:47;95269.69;;;28.08;41.05
49915;BME280;35806;47.958;13.158;2023-08-20T07:46:15;95269.28;;;28.28;41.90
49915;BME280;35806;47.958;13.158;2023-08-20T07:48:43;95271.52;;;28.55;39.96
49915;BME280;35806;47.958;13.158;2023-08-20T07:51:10;95271.16;;;28.70;41.09
49915;BME280;35806;47.958;13.158;2023-08-20T07:53:37;95271.58;;;28.69;41.08
49915;BME280;35806;47.958;13.158;2023-08-20T07:56:04;95272.39;;;28.94;41.65
49915;BME280;35806;47.958;13.158;2023-08-20T07:58:33;95271.78;;;29.18;40.90
49915;BME280;35806;47.958;13.158;2023-08-20T08:01:00;95272.60;;;29.78;40.58
49915;BME280;35806;47.958;13.158;2023-08-20T08:03:27;95271.36;;;29.63;39.79
49915;BME280;35806;47.958;13.158;2023-08-20T08:05:54;95272.26;;;29.72;39.89
49915;BME280;35806;47.958;13.158;2023-08-20T08:08:22;95273.40;;;30.11;40.50
49915;BME280;35806;47.958;13.158;2023-08-20T08:10:50;95269.94;;;30.29;39.87
49915;BME280;35806;47.958;13.158;2023-08-20T08:13:20;95272.05;;;30.65;38.83
49915;BME280;35806;47.958;13.158;2023-08-20T08:15:48;95271.32;;;30.63;37.44
49915;BME280;35806;47.958;13.158;2023-08-20T08:18:15;95273.32;;;30.93;36.99
49915;BME280;35806;47.958;13.158;2023-08-20T08:20:43;95272.15;;;31.02;36.39
49915;BME280;35806;47.958;13.158;2023-08-20T08:23:10;95276.08;;;31.02;36.75
49915;BME280;35806;47.958;13.158;2023-08-20T08:25:37;95280.34;;;30.99;36.10
49915;BME280;35806;47.958;13.158;2023-08-20T08:28:05;95277.56;;;30.90;36.29
49915;BME280;35806;47.958;13.158;2023-08-20T08:30:32;95277.53;;;31.24;36.64
49915;BME280;35806;47.958;13.158;2023-08-20T08:33:00;95277.13;;;31.85;36.17
49915;BME280;35806;47.958;13.158;2023-08-20T08:35:28;95278.64;;;31.57;35.39
49915;BME280;35806;47.958;13.158;2023-08-20T08:37:56;95279.95;;;31.47;34.38
49915;BME280;35806;47.958;13.158;2023-08-20T08:40:23;95281.56;;;31.44;32.65
49915;BME280;35806;47.958;13.158;2023-08-20T08:42:55;95281.61;;;31.63;31.58
49915;BME280;35806;47.958;13.158;2023-08-20T08:45:23;95283.16;;;32.11;32.25
49915;BME280;35806;47.958;13.158;2023-08-20T08:47:51;95287.28;;;31.91;32.08
49915;BME280;35806;47.958;13.158;2023-08-20T08:50:20;95288.12;;;31.83;31.70
49915;BME280;35806;47.958;13.158;2023-08-20T08:52:51;95288.14;;;31.89;31.77
49915;BME280;35806;47.958;13.158;2023-08-20T08:55:19;95288.56;;;31.49;32.86
49915;BME280;35806;47.958;13.158;2023-08-20T08:57:46;95286.59;;;31.64;33.89
49915;BME280;35806;47.958;13.158;2023-08-20T09:00:15;95287.48;;;31.16;34.09
49915;BME280;35806;47.958;13.158;2023-08-20T09:02:42;95287.79;;;31.63;35.28
49915;BME280;35806;47.958;13.158;2023-08-20T09:05:09;95289.48;;;31.62;34.13
49915;BME280;35806;47.958;13.158;2023-08-20T09:07:42;95290.54;;;31.06;34.10
49915;BME280;35806;47.958;13.158;2023-08-20T09:10:09;95289.93;;;31.42;34.95
49915;BME280;35806;47.958;13.158;2023-08-20T09:12:36;95288.08;;;30.80;34.58
49915;BME280;35806;47.958;13.158;2023-08-20T09:15:10;95287.42;;;30.53;35.93
49915;BME280;35806;47.958;13.158;2023-08-20T09:17:40;95289.96;;;30.10;36.20
49915;BME280;35806;47.958;13.158;2023-08-20T09:20:08;95291.25;;;30.20;37.24
49915;BME280;35806;47.958;13.158;2023-08-20T09:22:36;95288.69;;;30.09;36.86
49915;BME280;35806;47.958;13.158;2023-08-20T09:25:03;95290.12;;;30.65;37.11
49915;BME280;35806;47.958;13.158;2023-08-20T09:27:38;95288.41;;;30.42;37.80
49915;BME280;35806;47.958;13.158;2023-08-20T09:30:07;95290.57;;;30.50;37.10
49915;BME280;35806;47.958;13.158;2023-08-20T09:32:35;95291.42;;;29.76;37.57
49915;BME280;35806;47.958;13.158;2023-08-20T09:35:02;95295.66;;;30.80;38.37
49915;BME280;35806;47.958;13.158;2023-08-20T09:37:34;95297.81;;;30.81;37.67
49915;BME280;35806;47.958;13.158;2023-08-20T09:40:02;95300.76;;;30.90;37.96
49915;BME280;35806;47.958;13.158;2023-08-20T09:42:34;95300.37;;;30.65;38.33
49915;BME280;35806;47.958;13.158;2023-08-20T09:45:03;95300.08;;;30.58;38.71
49915;BME280;35806;47.958;13.158;2023-08-20T09:47:35;95298.90;;;30.65;39.39
49915;BME280;35806;47.958;13.158;2023-08-20T09:50:05;95298.88;;;30.86;39.00
49915;BME280;35806;47.958;13.158;2023-08-20T09:52:39;95301.32;;;30.38;38.33
49915;BME280;35806;47.958;13.158;2023-08-20T09:55:13;95304.59;;;31.31;37.78
49915;BME280;35806;47.958;13.158;2023-08-20T09:57:43;95303.58;;;31.64;37.22
49915;BME280;35806;47.958;13.158;2023-08-20T10:00:12;95305.39;;;31.55;36.36
49915;BME280;35806;47.958;13.158;2023-08-20T10:02:40;95304.69;;;31.92;35.88
49915;BME280;35806;47.958;13.158;2023-08-20T10:05:09;95304.64;;;32.18;34.62
49915;BME280;35806;47.958;13.158;2023-08-20T10:07:37;95307.02;;;32.82;34.45
49915;BME280;35806;47.958;13.158;2023-08-20T10:10:06;95307.03;;;32.95;33.90
49915;BME280;35806;47.958;13.158;2023-08-20T10:12:35;95309.26;;;32.63;33.75
49915;BME280;35806;47.958;13.158;2023-08-20T10:15:04;95302.33;;;33.23;32.41
49915;BME280;35806;47.958;13.158;2023-08-20T10:17:33;95303.84;;;33.24;31.33
49915;BME280;35806;47.958;13.158;2023-08-20T10:20:02;95304.71;;;32.67;31.52
49915;BME280;35806;47.958;13.158;2023-08-20T10:22:33;95302.29;;;32.91;31.25
49915;BME280;35806;47.958;13.158;2023-08-20T10:25:05;95301.29;;;33.10;30.65
49915;BME280;35806;47.958;13.158;2023-08-20T10:27:36;95300.41;;;32.72;31.44
49915;BME280;35806;47.958;13.158;2023-08-20T10:30:08;95303.91;;;32.59;31.27
49915;BME280;35806;47.958;13.158;2023-08-20T10:32:48;95302.73;;;32.08;30.59
49915;BME280;35806;47.958;13.158;2023-08-20T10:35:17;95304.94;;;33.47;31.80
49915;BME280;35806;47.958;13.158;2023-08-20T10:38:02;95303.56;;;33.09;30.16
49915;BME280;35806;47.958;13.158;2023-08-20T10:40:55;95300.95;;;33.06;28.81
49915;BME280;35806;47.958;13.158;2023-08-20T10:43:31;95299.69;;;33.04;30.42
49915;BME280;35806;47.958;13.158;2023-08-20T10:46:07;95299.76;;;32.93;28.00
49915;BME280;35806;47.958;13.158;2023-08-20T10:48:36;95298.82;;;32.83;29.15
49915;BME280;35806;47.958;13.158;2023-08-20T10:51:09;95299.18;;;32.33;26.95
49915;BME280;35806;47.958;13.158;2023-08-20T10:53:37;95300.14;;;32.49;28.50
49915;BME280;35806;47.958;13.158;2023-08-20T10:56:10;95293.49;;;33.22;28.58
49915;BME280;35806;47.958;13.158;2023-08-20T10:58:40;95294.71;;;32.69;28.38
49915;BME280;35806;47.958;13.158;2023-08-20T11:01:19;95293.80;;;32.96;28.04
49915;BME280;35806;47.958;13.158;2023-08-20T11:03:47;95291.77;;;33.13;28.04
49915;BME280;35806;47.958;13.158;2023-08-20T11:06:15;95292.54;;;33.30;27.70
49915;BME280;35806;47.958;13.158;2023-08-20T11:08:42;95291.82;;;33.69;26.82
49915;BME280;35806;47.958;13.158;2023-08-20T11:11:11;95290.94;;;33.81;27.51
49915;BME280;35806;47.958;13.158;2023-08-20T11:13:38;95295.27;;;33.47;26.09
49915;BME280;35806;47.958;13.158;2023-08-20T11:16:06;95291.91;;;33.66;26.18
49915;BME280;35806;47.958;13.158;2023-08-20T11:18:34;95291.86;;;33.57;25.30
49915;BME280;35806;47.958;13.158;2023-08-20T11:21:01;95291.61;;;33.63;28.55
49915;BME280;35806;47.958;13.158;2023-08-20T11:23:29;95290.68;;;33.87;25.88
49915;BME280;35806;47.958;13.158;2023-08-20T11:25:58;95292.52;;;33.92;24.51
49915;BME280;35806;47.958;13.158;2023-08-20T11:28:26;95290.49;;;34.06;25.66
49915;BME280;35806;47.958;13.158;2023-08-20T11:30:54;95287.83;;;33.89;26.10
49915;BME280;35806;47.958;13.158;2023-08-20T11:33:21;95290.31;;;33.74;26.91
49915;BME280;35806;47.958;13.158;2023-08-20T11:35:50;95288.89;;;33.08;27.27
49915;BME280;35806;47.958;13.158;2023-08-20T11:38:19;95287.62;;;33.59;27.23
49915;BME280;35806;47.958;13.158;2023-08-20T11:40:46;95286.57;;;33.23;26.91
49915;BME280;35806;47.958;13.158;2023-08-20T11:43:14;95287.11;;;33.52;27.33
49915;BME280;35806;47.958;13.158;2023-08-20T11:45:46;95286.15;;;33.26;26.92
49915;BME280;35806;47.958;13.158;2023-08-20T11:48:14;95288.30;;;33.48;26.72
49915;BME280;35806;47.958;13.158;2023-08-20T11:50:47;95286.48;;;32.82;26.72
49915;BME280;35806;47.958;13.158;2023-08-20T11:53:14;95284.51;;;33.62;25.55
49915;BME280;35806;47.958;13.158;2023-08-20T11:55:42;95282.42;;;33.45;27.63
49915;BME280;35806;47.958;13.158;2023-08-20T11:58:11;95283.44;;;33.31;26.18
49915;BME280;35806;47.958;13.158;2023-08-20T12:00:39;95284.20;;;33.00;25.60
49915;BME280;35806;47.958;13.158;2023-08-20T12:03:09;95286.69;;;33.40;25.83
49915;BME280;35806;47.958;13.158;2023-08-20T12:05:36;95283.41;;;32.73;25.00
49915;BME280;35806;47.958;13.158;2023-08-20T12:08:04;95283.82;;;33.42;25.14
49915;BME280;35806;47.958;13.158;2023-08-20T12:10:32;95286.53;;;33.70;24.60
49915;BME280;35806;47.958;13.158;2023-08-20T12:13:00;95284.13;;;34.16;24.95
49915;BME280;35806;47.958;13.158;2023-08-20T12:15:28;95282.99;;;33.89;24.32
49915;BME280;35806;47.958;13.158;2023-08-20T12:17:57;95284.58;;;33.26;23.94
49915;BME280;35806;47.958;13.158;2023-08-20T12:20:26;95283.37;;;33.49;24.55
49915;BME280;35806;47.958;13.158;2023-08-20T12:22:53;95280.34;;;33.75;25.07
49915;BME280;35806;47.958;13.158;2023-08-20T12:25:21;95278.56;;;34.25;23.29
49915;BME280;35806;47.958;13.158;2023-08-20T12:27:48;95276.02;;;34.00;19.61
49915;BME280;35806;47.958;13.158;2023-08-20T12:30:16;95273.21;;;33.78;22.82
49915;BME280;35806;47.958;13.158;2023-08-20T12:32:43;95270.06;;;34.23;21.25
49915;BME280;35806;47.958;13.158;2023-08-20T12:35:10;95269.35;;;33.82;21.88
49915;BME280;35806;47.958;13.158;2023-08-20T12:37:38;95267.21;;;33.91;20.82
49915;BME280;35806;47.958;13.158;2023-08-20T12:40:06;95266.99;;;33.17;20.93
49915;BME280;35806;47.958;13.158;2023-08-20T12:42:34;95265.81;;;33.21;18.38
49915;BME280;35806;47.958;13.158;2023-08-20T12:45:01;95264.00;;;34.36;18.79
49915;BME280;35806;47.958;13.158;2023-08-20T12:47:29;95263.35;;;34.41;21.34
49915;BME280;35806;47.958;13.158;2023-08-20T12:49:56;95260.34;;;34.55;20.35
49915;BME280;35806;47.958;13.158;2023-08-20T12:52:23;95254.21;;;34.56;18.83
49915;BME280;35806;47.958;13.158;2023-08-20T12:54:52;95256.62;;;34.82;20.14
49915;BME280;35806;47.958;13.158;2023-08-20T12:57:19;95255.51;;;34.77;21.87
49915;BME280;35806;47.958;13.158;2023-08-20T12:59:47;95256.71;;;34.61;21.30
49915;BME280;35806;47.958;13.158;2023-08-20T13:02:14;95259.74;;;35.19;21.87
49915;BME280;35806;47.958;13.158;2023-08-20T13:04:42;95261.75;;;34.44;22.05
49915;BME280;35806;47.958;13.158;2023-08-20T13:07:10;95259.07;;;34.55;23.12
49915;BME280;35806;47.958;13.158;2023-08-20T13:09:38;95257.54;;;34.05;22.56
49915;BME280;35806;47.958;13.158;2023-08-20T13:12:06;95253.41;;;34.20;25.57